createdAt,value
2022-09-11T00:01:47.212Z,5.32
2022-09-11T00:04:15.610Z,5.35
2022-09-11T00:06:44.539Z,5.05
2022-09-11T00:09:13.949Z,4.88
2022-09-11T00:11:43.592Z,5.78
2022-09-11T00:14:14.904Z,6.15
2022-09-11T00:16:47.164Z,6.03
2022-09-11T00:19:18.815Z,5.63
2022-09-11T00:21:49.253Z,4.82
2022-09-11T00:24:17.835Z,5.65
2022-09-11T00:26:47.849Z,7.07
2022-09-11T00:29:16.550Z,6.38
2022-09-11T00:31:46.554Z,5.95
2022-09-11T00:34:14.956Z,6.53
2022-09-11T00:36:43.815Z,5.80
2022-09-11T00:39:14.303Z,5.68
2022-09-11T00:41:45.027Z,5.55
2022-09-11T00:48:34.079Z,5.90
2022-09-11T00:51:04.825Z,6.25
2022-09-11T00:53:37.145Z,6.47
2022-09-11T00:56:09.733Z,5.50
2022-09-11T00:58:40.606Z,5.82
2022-09-11T01:01:09.379Z,5.85
2022-09-11T01:03:39.422Z,6.10
2022-09-11T01:06:10.045Z,5.15
2022-09-11T01:08:39.452Z,6.22
2022-09-11T01:11:21.395Z,5.90
2022-09-11T01:13:56.323Z,5.88
2022-09-11T01:16:33.533Z,5.47
2022-09-11T01:19:14.232Z,5.45
2022-09-11T01:22:06.719Z,5.85
2022-09-11T01:24:57.440Z,4.85
2022-09-11T01:27:41.559Z,5.10
2022-09-11T01:30:13.255Z,5.65
2022-09-11T01:32:51.587Z,5.32
2022-09-11T01:35:25.916Z,4.63
2022-09-11T01:37:58.807Z,4.78
2022-09-11T01:40:33.111Z,5.28
2022-09-11T01:43:08.035Z,4.50
2022-09-11T01:45:38.388Z,4.68
2022-09-11T01:48:09.110Z,4.50
2022-09-11T01:50:41.607Z,4.85
2022-09-11T01:53:12.852Z,4.45
2022-09-11T01:55:45.994Z,4.55
2022-09-11T01:58:21.506Z,4.85
2022-09-11T02:00:55.954Z,4.78
2022-09-11T02:03:29.684Z,5.13
2022-09-11T02:06:01.705Z,4.30
2022-09-11T02:08:38.238Z,4.70
2022-09-11T02:11:09.285Z,4.65
2022-09-11T02:13:47.155Z,4.93
2022-09-11T02:16:22.854Z,4.38
2022-09-11T02:18:59.453Z,4.05
2022-09-11T02:21:28.736Z,4.45
2022-09-11T02:23:57.874Z,4.43
2022-09-11T02:26:29.172Z,4.47
2022-09-11T02:28:59.303Z,5.00
2022-09-11T02:31:28.271Z,3.70
2022-09-11T02:33:57.996Z,3.63
2022-09-11T02:36:45.189Z,3.75
2022-09-11T02:39:40.357Z,4.13
2022-09-11T02:42:22.519Z,3.88
2022-09-11T02:45:02.202Z,3.60
2022-09-11T02:47:42.938Z,4.07
2022-09-11T02:50:22.119Z,3.10
2022-09-11T02:52:59.432Z,4.00
2022-09-11T02:55:38.740Z,3.95
2022-09-11T02:58:15.753Z,3.58
2022-09-11T03:00:48.245Z,3.55
2022-09-11T03:03:17.144Z,3.80
2022-09-11T03:05:45.882Z,4.10
2022-09-11T03:08:16.948Z,4.45
2022-09-11T03:10:46.833Z,4.65
2022-09-11T03:13:15.549Z,3.53
2022-09-11T03:15:45.716Z,3.40
2022-09-11T03:18:15.730Z,3.55
2022-09-11T03:20:47.040Z,3.65
2022-09-11T03:23:15.802Z,3.70
2022-09-11T03:25:44.437Z,3.58
2022-09-11T03:28:13.133Z,3.40
2022-09-11T03:30:42.646Z,3.35
2022-09-11T03:33:12.550Z,3.83
2022-09-11T03:35:41.098Z,3.60
2022-09-11T03:38:09.825Z,3.47
2022-09-11T03:40:38.553Z,3.72
2022-09-11T03:43:07.092Z,3.40
2022-09-11T03:45:35.987Z,3.53
2022-09-11T03:48:04.941Z,3.17
2022-09-11T03:50:34.900Z,3.92
2022-09-11T03:53:04.005Z,4.00
2022-09-11T03:55:32.856Z,3.47
2022-09-11T03:58:01.610Z,3.00
2022-09-11T04:00:30.488Z,3.50
2022-09-11T04:02:59.491Z,4.18
2022-09-11T04:05:28.171Z,3.90
2022-09-11T04:07:58.192Z,3.85
2022-09-11T04:10:26.745Z,3.33
2022-09-11T04:12:55.557Z,3.10
2022-09-11T04:15:24.363Z,2.90
2022-09-11T04:17:54.031Z,3.63
2022-09-11T04:20:22.644Z,3.20
2022-09-11T04:22:52.660Z,3.40
2022-09-11T04:25:22.723Z,3.53
2022-09-11T04:27:51.324Z,2.75
2022-09-11T04:30:22.404Z,3.05
2022-09-11T04:32:51.086Z,3.45
2022-09-11T04:35:20.630Z,3.03
2022-09-11T04:37:49.748Z,3.05
2022-09-11T04:40:18.591Z,3.97
2022-09-11T04:42:48.769Z,4.10
2022-09-11T04:45:17.721Z,3.95
2022-09-11T04:47:46.384Z,3.40
2022-09-11T04:50:15.120Z,3.83
2022-09-11T04:52:45.756Z,3.80
2022-09-11T04:55:15.608Z,3.92
2022-09-11T04:57:44.258Z,3.65
2022-09-11T05:00:16.078Z,3.72
2022-09-11T05:02:44.918Z,3.70
2022-09-11T05:05:13.786Z,4.28
2022-09-11T05:07:44.047Z,4.38
2022-09-11T05:10:12.756Z,3.40
2022-09-11T05:12:41.606Z,3.92
2022-09-11T05:15:11.465Z,4.10
2022-09-11T05:17:42.137Z,3.92
2022-09-11T05:20:12.031Z,4.22
2022-09-11T05:22:41.000Z,3.72
2022-09-11T05:25:10.540Z,3.83
2022-09-11T05:27:39.314Z,3.97
2022-09-11T05:30:09.167Z,4.07
2022-09-11T05:32:37.964Z,3.17
2022-09-11T05:35:09.338Z,4.00
2022-09-11T05:37:38.075Z,4.22
2022-09-11T05:40:08.115Z,4.22
2022-09-11T05:42:36.908Z,4.03
2022-09-11T05:45:06.284Z,3.47
2022-09-11T05:47:34.930Z,3.92
2022-09-11T05:50:03.972Z,3.63
2022-09-11T05:52:35.036Z,3.92
2022-09-11T05:55:03.863Z,3.33
2022-09-11T05:57:33.000Z,4.40
2022-09-11T06:00:01.631Z,4.03
2022-09-11T06:02:31.120Z,3.63
2022-09-11T06:05:00.119Z,4.68
2022-09-11T06:07:28.650Z,3.53
2022-09-11T06:10:02.973Z,3.63
2022-09-11T06:12:32.226Z,4.40
2022-09-11T06:15:00.713Z,3.75
2022-09-11T06:17:29.372Z,4.20
2022-09-11T06:19:58.291Z,5.07
2022-09-11T06:22:27.416Z,4.50
2022-09-11T06:24:56.014Z,4.28
2022-09-11T06:27:26.210Z,4.72
2022-09-11T06:29:55.571Z,4.43
2022-09-11T06:32:24.174Z,3.65
2022-09-11T06:34:53.674Z,4.40
2022-09-11T06:37:22.294Z,5.05
2022-09-11T06:39:51.966Z,4.40
2022-09-11T06:42:20.727Z,4.63
2022-09-11T06:44:52.178Z,4.35
2022-09-11T06:47:21.269Z,5.28
2022-09-11T06:49:50.220Z,4.80
2022-09-11T06:52:18.879Z,4.30
2022-09-11T06:54:47.493Z,4.63
2022-09-11T06:57:16.235Z,4.55
2022-09-11T06:59:45.146Z,5.20
2022-09-11T07:02:15.243Z,5.28
2022-09-11T07:04:44.174Z,4.15
2022-09-11T07:07:12.783Z,5.32
2022-09-11T07:09:41.529Z,5.63
2022-09-11T07:12:10.616Z,5.70
2022-09-11T07:14:39.830Z,4.90
2022-09-11T07:17:08.523Z,4.97
2022-09-11T07:19:38.733Z,5.28
2022-09-11T07:22:07.599Z,5.80
2022-09-11T07:24:36.395Z,4.85
2022-09-11T07:27:05.942Z,5.03
2022-09-11T07:29:34.925Z,4.93
2022-09-11T07:32:03.811Z,4.97
2022-09-11T07:34:32.677Z,5.95
2022-09-11T07:37:03.029Z,5.20
2022-09-11T07:39:31.954Z,5.45
2022-09-11T07:42:00.854Z,5.60
2022-09-11T07:44:29.944Z,6.43
2022-09-11T07:46:58.521Z,4.93
2022-09-11T07:49:27.891Z,5.68
2022-09-11T07:51:56.663Z,5.85
2022-09-11T07:54:29.525Z,6.35
2022-09-11T07:56:59.085Z,6.00
2022-09-11T07:59:27.997Z,6.45
2022-09-11T08:02:12.737Z,6.47
2022-09-11T08:05:11.553Z,4.72
2022-09-11T08:07:40.177Z,7.57
2022-09-11T08:10:26.543Z,6.95
2022-09-11T08:12:59.943Z,5.43
2022-09-11T08:15:29.307Z,5.65
2022-09-11T08:17:57.888Z,6.30
2022-09-11T08:20:26.988Z,5.18
2022-09-11T08:22:55.844Z,5.40
2022-09-11T08:25:25.865Z,5.20
2022-09-11T08:27:54.754Z,5.25
2022-09-11T08:30:23.670Z,4.47
2022-09-11T08:32:52.286Z,4.60
2022-09-11T08:35:20.924Z,5.22
2022-09-11T08:37:54.628Z,4.32
2022-09-11T08:40:23.624Z,3.88
2022-09-11T08:42:56.545Z,3.90
2022-09-11T08:45:31.187Z,4.38
2022-09-11T08:48:01.404Z,4.47
2022-09-11T08:50:36.226Z,4.18
2022-09-11T08:53:09.737Z,4.22
2022-09-11T08:55:46.045Z,4.65
2022-09-11T08:58:22.355Z,2.80
2022-09-11T09:00:56.232Z,4.18
2022-09-11T09:03:46.721Z,3.83
2022-09-11T09:06:44.845Z,3.85
2022-09-11T09:09:23.463Z,3.35
2022-09-11T09:11:57.694Z,2.70
2022-09-11T09:14:59.951Z,3.10
2022-09-11T09:17:34.681Z,2.80
2022-09-11T09:20:11.227Z,3.25
2022-09-11T09:22:45.429Z,2.67
2022-09-11T09:25:18.919Z,2.83
2022-09-11T09:27:49.520Z,2.67
2022-09-11T09:30:23.779Z,2.80
2022-09-11T09:32:58.623Z,1.92
2022-09-11T09:35:32.986Z,2.42
2022-09-11T09:38:01.649Z,2.72
2022-09-11T09:40:33.436Z,2.80
2022-09-11T09:43:14.075Z,2.35
2022-09-11T09:46:05.712Z,2.67
2022-09-11T09:48:38.537Z,2.60
2022-09-11T09:51:12.137Z,2.03
2022-09-11T09:53:43.795Z,2.30
2022-09-11T09:56:17.440Z,2.03
2022-09-11T09:58:54.313Z,2.30
2022-09-11T10:01:46.624Z,2.40
2022-09-11T10:04:21.693Z,2.15
2022-09-11T10:06:52.114Z,1.90
2022-09-11T10:09:26.916Z,1.88
2022-09-11T10:12:02.995Z,2.33
2022-09-11T10:14:51.140Z,2.42
2022-09-11T10:17:25.540Z,2.15
2022-09-11T10:19:57.199Z,1.77
2022-09-11T10:22:29.149Z,2.10
2022-09-11T10:25:03.371Z,1.92
2022-09-11T10:27:36.197Z,2.40
2022-09-11T10:30:06.912Z,1.95
2022-09-11T10:32:40.550Z,1.75
2022-09-11T10:35:12.102Z,2.42
2022-09-11T10:37:40.994Z,2.00
2022-09-11T10:40:21.604Z,2.08
2022-09-11T10:42:52.678Z,1.90
2022-09-11T10:45:24.024Z,1.95
2022-09-11T10:47:54.362Z,2.05
2022-09-11T10:50:28.852Z,2.30
2022-09-11T10:53:12.382Z,2.03
2022-09-11T10:55:45.015Z,2.00
2022-09-11T10:58:18.048Z,1.92
2022-09-11T11:00:46.742Z,1.60
2022-09-11T11:03:21.466Z,2.38
2022-09-11T11:06:02.131Z,2.00
2022-09-11T11:08:57.437Z,1.88
2022-09-11T11:11:42.849Z,1.90
2022-09-11T11:14:59.636Z,1.73
2022-09-11T11:17:38.601Z,2.38
2022-09-11T11:20:26.909Z,1.85
2022-09-11T11:23:24.873Z,1.90
2022-09-11T11:26:07.252Z,2.30
2022-09-11T11:28:56.937Z,2.28
2022-09-11T11:31:43.710Z,2.15
2022-09-11T11:34:34.776Z,2.08
2022-09-11T11:37:12.097Z,1.83
2022-09-11T11:39:50.766Z,2.30
2022-09-11T11:42:26.040Z,1.65
2022-09-11T11:44:58.533Z,2.10
2022-09-11T11:47:31.282Z,1.83
2022-09-11T11:50:07.153Z,1.90
2022-09-11T11:52:54.899Z,1.75
2022-09-11T11:55:27.132Z,2.03
2022-09-11T11:58:01.956Z,1.67
2022-09-11T12:00:35.501Z,2.13
2022-09-11T12:03:11.138Z,2.33
2022-09-11T12:05:40.400Z,2.30
2022-09-11T12:08:15.066Z,2.30
2022-09-11T12:10:47.973Z,1.88
2022-09-11T12:13:20.297Z,1.75
2022-09-11T12:16:03.930Z,2.17
2022-09-11T12:18:34.540Z,1.92
2022-09-11T12:21:38.084Z,1.42
2022-09-11T12:24:18.095Z,1.80
2022-09-11T12:26:46.843Z,1.75
2022-09-11T12:29:51.804Z,2.17
2022-09-11T12:32:29.130Z,1.50
2022-09-11T12:35:04.327Z,1.70
2022-09-11T12:37:38.998Z,1.83
2022-09-11T12:40:19.211Z,1.98
2022-09-11T12:42:56.930Z,1.58
2022-09-11T12:45:35.904Z,1.73
2022-09-11T12:48:11.014Z,1.50
2022-09-11T12:50:40.614Z,2.17
2022-09-11T12:53:18.458Z,1.77
2022-09-11T12:55:59.590Z,1.90
2022-09-11T12:58:34.267Z,1.65
2022-09-11T13:01:19.956Z,1.77
2022-09-11T13:03:58.545Z,1.40
2022-09-11T13:06:39.925Z,1.50
2022-09-11T13:09:19.039Z,1.67
2022-09-11T13:11:50.858Z,1.85
2022-09-11T13:14:49.132Z,1.40
2022-09-11T13:17:26.699Z,1.40
2022-09-11T13:20:10.894Z,1.70
2022-09-11T13:22:40.085Z,1.52
2022-09-11T13:25:14.605Z,1.73
2022-09-11T13:27:49.670Z,1.85
2022-09-11T13:30:21.698Z,1.67
2022-09-11T13:33:02.531Z,1.38
2022-09-11T13:35:32.587Z,1.80
2022-09-11T13:38:05.353Z,1.60
2022-09-11T13:40:42.953Z,1.42
2022-09-11T13:43:18.422Z,1.70
2022-09-11T13:45:47.708Z,1.80
2022-09-11T13:48:23.129Z,2.10
2022-09-11T13:50:53.927Z,1.85
2022-09-11T13:53:24.320Z,1.80
2022-09-11T13:55:52.943Z,1.48
2022-09-11T13:58:26.442Z,1.67
2022-09-11T14:00:55.645Z,1.70
2022-09-11T14:03:28.111Z,1.55
2022-09-11T14:06:00.135Z,1.48
2022-09-11T14:08:32.866Z,1.60
2022-09-11T14:11:08.130Z,1.85
2022-09-11T14:13:47.461Z,1.50
2022-09-11T14:16:27.481Z,1.60
2022-09-11T14:19:00.340Z,1.67
2022-09-11T14:21:34.658Z,1.80
2022-09-11T14:24:07.310Z,1.77
2022-09-11T14:26:42.908Z,1.92
2022-09-11T14:29:25.988Z,1.50
2022-09-11T14:31:55.948Z,1.88
2022-09-11T14:34:27.659Z,1.10
2022-09-11T14:36:59.802Z,1.63
2022-09-11T14:39:33.035Z,1.30
2022-09-11T14:42:02.957Z,1.27
2022-09-11T14:44:34.086Z,1.92
2022-09-11T14:47:03.230Z,1.48
2022-09-11T14:49:31.917Z,1.25
2022-09-11T14:52:02.095Z,1.42
2022-09-11T14:54:32.197Z,1.80
2022-09-11T14:57:01.355Z,1.50
2022-09-11T14:59:30.344Z,1.30
2022-09-11T15:02:00.494Z,1.40
2022-09-11T15:04:29.765Z,1.60
2022-09-11T15:06:59.987Z,1.25
2022-09-11T15:09:29.255Z,1.60
2022-09-11T15:11:58.281Z,1.15
2022-09-11T15:14:52.361Z,1.20
2022-09-11T15:17:20.247Z,1.17
2022-09-11T15:19:50.294Z,0.98
2022-09-11T15:22:19.484Z,1.48
2022-09-11T15:24:49.942Z,1.40
2022-09-11T15:27:19.296Z,0.90
2022-09-11T15:29:48.163Z,1.60
2022-09-11T15:32:18.180Z,1.40
2022-09-11T15:34:47.538Z,1.20
2022-09-11T15:37:17.368Z,1.65
2022-09-11T15:39:46.247Z,1.60
2022-09-11T15:42:14.866Z,1.42
2022-09-11T15:44:44.173Z,1.05
2022-09-11T15:47:13.812Z,1.05
2022-09-11T15:49:44.943Z,1.00
2022-09-11T15:52:14.484Z,1.23
2022-09-11T15:54:45.620Z,1.08
2022-09-11T15:57:14.684Z,1.25
2022-09-11T15:59:45.405Z,1.67
2022-09-11T16:02:14.270Z,1.45
2022-09-11T16:04:44.537Z,1.80
2022-09-11T16:07:13.475Z,1.25
2022-09-11T16:09:42.454Z,1.20
2022-09-11T16:12:11.617Z,1.30
2022-09-11T16:14:40.258Z,1.00
2022-09-11T16:17:09.489Z,1.27
2022-09-11T16:19:38.985Z,1.10
2022-09-11T16:22:10.077Z,1.42
2022-09-11T16:24:39.021Z,0.98
2022-09-11T16:27:09.668Z,1.52
2022-09-11T16:30:15.480Z,1.10
2022-09-11T16:32:34.198Z,1.00
2022-09-11T16:35:03.203Z,1.10
2022-09-11T16:37:34.268Z,1.25
2022-09-11T16:40:04.423Z,0.93
2022-09-11T16:42:33.618Z,1.33
2022-09-11T16:45:02.247Z,1.15
2022-09-11T16:47:32.467Z,1.20
2022-09-11T16:50:07.365Z,1.33
2022-09-11T16:52:41.011Z,1.25
2022-09-11T16:55:14.410Z,1.10
2022-09-11T16:57:44.504Z,1.08
2022-09-11T17:00:14.565Z,1.10
2022-09-11T17:02:46.512Z,1.35
2022-09-11T17:05:18.011Z,1.20
2022-09-11T17:07:48.021Z,1.10
2022-09-11T17:10:16.901Z,1.05
2022-09-11T17:12:45.460Z,0.98
2022-09-11T17:15:14.078Z,1.40
2022-09-11T17:17:43.483Z,1.45
2022-09-11T17:20:12.626Z,1.33
2022-09-11T17:22:44.048Z,1.10
2022-09-11T17:25:14.320Z,1.38
2022-09-11T17:27:42.941Z,1.00
2022-09-11T17:30:12.905Z,1.40
2022-09-11T17:32:41.753Z,1.35
2022-09-11T17:35:11.101Z,0.98
2022-09-11T17:37:40.070Z,2.28
2022-09-11T17:40:10.073Z,1.23
2022-09-11T17:42:40.509Z,1.55
2022-09-11T17:45:11.041Z,1.40
2022-09-11T17:47:41.035Z,1.20
2022-09-11T17:50:10.891Z,1.05
2022-09-11T17:52:39.770Z,1.20
2022-09-11T17:55:09.804Z,1.15
2022-09-11T17:57:44.321Z,1.30
2022-09-11T18:00:14.355Z,1.50
2022-09-11T18:02:44.153Z,1.20
2022-09-11T18:05:12.908Z,1.27
2022-09-11T18:07:42.584Z,1.42
2022-09-11T18:10:11.499Z,1.45
2022-09-11T18:12:41.478Z,1.20
2022-09-11T18:15:11.279Z,1.40
2022-09-11T18:17:39.921Z,1.95
2022-09-11T18:20:09.857Z,1.48
2022-09-11T18:22:39.824Z,1.42
2022-09-11T18:25:09.930Z,1.13
2022-09-11T18:27:40.288Z,1.65
2022-09-11T18:30:12.666Z,1.48
2022-09-11T18:32:41.470Z,1.20
2022-09-11T18:35:11.780Z,1.42
2022-09-11T18:37:40.573Z,1.33
2022-09-11T18:40:10.494Z,1.60
2022-09-11T18:42:43.584Z,1.50
2022-09-11T18:45:13.962Z,1.50
2022-09-11T18:47:43.602Z,1.83
2022-09-11T18:50:12.331Z,1.48
2022-09-11T18:52:41.388Z,1.10
2022-09-11T18:55:11.013Z,1.52
2022-09-11T18:57:43.061Z,1.23
2022-09-11T19:00:17.329Z,1.73
2022-09-11T19:02:46.633Z,1.60
2022-09-11T19:05:16.795Z,1.50
2022-09-11T19:07:45.908Z,1.35
2022-09-11T19:10:14.502Z,0.80
2022-09-11T19:12:43.824Z,1.50
2022-09-11T19:15:14.222Z,1.30
2022-09-11T19:17:43.013Z,1.42
2022-09-11T19:20:12.761Z,1.55
2022-09-11T19:22:41.593Z,1.38
2022-09-11T19:25:10.799Z,1.67
2022-09-11T19:27:39.614Z,1.73
2022-09-11T19:30:08.859Z,2.00
2022-09-11T19:32:39.116Z,1.33
2022-09-11T19:35:08.394Z,1.30
2022-09-11T19:37:37.492Z,1.17
2022-09-11T19:40:07.220Z,1.48
2022-09-11T19:42:36.240Z,1.17
2022-09-11T19:45:05.955Z,1.60
2022-09-11T19:47:34.941Z,2.00
2022-09-11T19:50:05.920Z,1.50
2022-09-11T19:52:34.476Z,1.38
2022-09-11T19:55:03.975Z,1.27
2022-09-11T19:57:33.039Z,1.67
2022-09-11T20:00:01.622Z,1.50
2022-09-11T20:02:30.560Z,1.60
2022-09-11T20:05:00.389Z,1.30
2022-09-11T20:07:31.096Z,1.85
2022-09-11T20:10:00.399Z,1.55
2022-09-11T20:12:32.660Z,1.33
2022-09-11T20:15:01.689Z,1.48
2022-09-11T20:17:30.465Z,1.85
2022-09-11T20:20:01.791Z,1.40
2022-09-11T20:22:32.615Z,1.10
2022-09-11T20:25:01.190Z,2.10
2022-09-11T20:27:29.783Z,1.60
2022-09-11T20:30:00.521Z,1.58
2022-09-11T20:32:29.437Z,1.75
2022-09-11T20:34:58.110Z,2.03
2022-09-11T20:37:26.872Z,1.48
2022-09-11T20:39:56.855Z,1.67
2022-09-11T20:42:25.385Z,1.58
2022-09-11T20:44:54.236Z,1.58
2022-09-11T20:47:23.473Z,1.50
2022-09-11T20:49:52.123Z,1.85
2022-09-11T20:52:20.924Z,1.70
2022-09-11T20:54:49.818Z,1.83
2022-09-11T20:57:20.223Z,1.75
2022-09-11T20:59:50.009Z,1.92
2022-09-11T21:02:19.219Z,1.88
2022-09-11T21:04:49.063Z,1.92
2022-09-11T21:07:17.946Z,2.10
2022-09-11T21:09:47.038Z,1.73
2022-09-11T21:12:15.705Z,1.80
2022-09-11T21:14:46.024Z,1.40
2022-09-11T21:17:14.663Z,1.83
2022-09-11T21:19:44.436Z,1.70
2022-09-11T21:22:13.407Z,1.85
2022-09-11T21:24:43.221Z,1.58
2022-09-11T21:27:12.216Z,1.85
2022-09-11T21:29:41.143Z,2.05
2022-09-11T21:32:11.302Z,1.40
2022-09-11T21:34:39.840Z,1.63
2022-09-11T21:37:09.068Z,1.90
2022-09-11T21:39:38.234Z,1.73
2022-09-11T21:42:11.264Z,1.52
2022-09-11T21:44:40.537Z,1.75
2022-09-11T21:47:10.844Z,1.75
2022-09-11T21:49:39.367Z,1.60
2022-09-11T21:52:08.044Z,3.95
2022-09-11T21:54:36.975Z,1.60
2022-09-11T21:57:06.348Z,1.77
2022-09-11T21:59:35.036Z,1.70
2022-09-11T22:02:03.901Z,1.58
2022-09-11T22:04:34.693Z,1.55
2022-09-11T22:07:03.189Z,1.42
2022-09-11T22:09:32.212Z,1.70
2022-09-11T22:12:00.848Z,1.80
2022-09-11T22:14:29.465Z,1.65
2022-09-11T22:16:58.376Z,1.58
2022-09-11T22:19:27.506Z,1.90
2022-09-11T22:21:57.436Z,2.10
2022-09-11T22:24:26.358Z,2.00
2022-09-11T22:26:54.936Z,1.85
2022-09-11T22:29:23.523Z,1.67
2022-09-11T22:31:52.384Z,1.83
2022-09-11T22:34:21.568Z,1.67
2022-09-11T22:36:50.139Z,1.73
2022-09-11T22:39:20.571Z,1.60
2022-09-11T22:41:49.144Z,1.80
2022-09-11T22:44:19.883Z,1.95
2022-09-11T22:46:48.968Z,1.90
2022-09-11T22:49:17.889Z,1.75
2022-09-11T22:51:46.423Z,1.40
2022-09-11T22:54:15.454Z,1.92
2022-09-11T22:56:45.677Z,1.90
2022-09-11T22:59:14.673Z,1.73
2022-09-11T23:01:43.588Z,1.65
2022-09-11T23:04:12.311Z,2.00
2022-09-11T23:06:58.551Z,1.88
2022-09-11T23:09:27.254Z,1.65
2022-09-11T23:11:57.321Z,1.80
2022-09-11T23:14:25.923Z,1.85
2022-09-11T23:16:55.030Z,1.90
2022-09-11T23:19:23.798Z,1.88
2022-09-11T23:21:52.507Z,2.08
2022-09-11T23:24:21.807Z,1.30
2022-09-11T23:26:50.431Z,2.00
2022-09-11T23:29:20.395Z,2.17
2022-09-11T23:31:49.347Z,1.45
2022-09-11T23:34:18.648Z,1.60
2022-09-11T23:36:47.346Z,1.60
2022-09-11T23:39:16.619Z,1.67
2022-09-11T23:41:45.675Z,1.88
2022-09-11T23:44:14.351Z,1.83
2022-09-11T23:46:44.576Z,1.52
2022-09-11T23:49:14.733Z,1.58
2022-09-11T23:51:43.445Z,1.52
2022-09-11T23:54:12.345Z,1.98
2022-09-11T23:56:40.942Z,2.08
2022-09-11T23:59:09.772Z,1.48
